< < Back
Terminal Aerodrome Forecast


Current Version              Previous Versions:   1  2  3  4  5  6  7  8  9  

Terminal Aerodrome Forecast

751
FTUS42 KTAE 232327
TAFVLD
TAF
KVLD 232327Z 2400/2424 06005KT P6SM SCT040 BKN250
     FM241100 06003KT 4SM BR SCT004 BKN010
     FM241300 07008KT P6SM SCT040=

Latest METAR

586
SAUS70 KWBC 241000 RRK
MTRVLD
METAR KVLD 240953Z 03003KT 10SM SCT003 24/24 A3017 RMK AO2 SLP222
T02390239


USA.gov is the U.S. government's official web portal to all federal, state and local government web resources and services.